Main page
METAR-TAF:

METAR-TAF

Airports :

Tuticorin Airport

Thoothukudi, India

latitude: 8-43-27N, longitude: 78-01-33E, elevation: 39 m

Current weather observation

The report was made 50 minutes ago, at 06:00 UTC
Wind 14 kt from the West
Temperature 36°C
Humidity 45%
Pressure 1010 hPa
Visibility: 6000 m
Few clouds at a height of 2000 ft

METAR: VOTK 300600Z 28014KT 6000 FEW020 36/22 Q1010 NOSIG

Time: 12:20 (06:50 UTC)


TAF: missing

Weather observations and forecasts of more than 4000 airports (METAR and TAF reports).

The available stations are represented by yellow and red dots on the map.

Hover mouse over dot to see the name of the station.

Then click to see weather observations and forecasts.

To change the map : click on the green buttons with a black cross to zoom in, on the green button with a dash to zoom out, or on the green arrows for adjacent maps.


METAR-TAF: